Latest Weather Observations for Thargomindah

IDQ60801

Issued at 2:02 pm EST Thursday 28 May 2015 (issued every 30 minutes, with the page automatically refreshed every 10 minutes)

About weather observations | Map of weather stations | Latest weather observations for QLD | Other Formats
Station Details ID: 045025 Name: THARGOMINDAH AIRPORT Lat: -27.99 Lon: 143.81 Height: 130.89 m
Data from the previous 72 hours. | See also: Recent months at Thargomindah
Date/Time
EST
Temp
°C
App
Temp
°C
Dew
Point
Rel
Hum
%
Delta-T
°C
Wind Press
QNH
hPa
Press
MSL
hPa
Rain
since 9 am
mm
Dir
 
Spd
km/h
Gust
km/h
Spd
kts
Gust
kts
28/02:00pm 27.9 24.6 8.2 29 10.7 NNW 15 20 8 11 1019.5 - 0.0
28/01:30pm 26.8 23.3 7.3 29 10.4 N 15 22 8 12 1019.7 - 0.0
28/01:00pm 26.9 23.6 7.9 30 10.3 N 15 20 8 11 1020.2 - 0.0
28/12:30pm 26.3 22.8 7.4 30 10.1 N 15 24 8 13 1020.8 - 0.0
28/12:00pm 25.7 21.5 7.3 31 9.7 N 19 24 10 13 1021.0 1020.7 0.0
28/11:30am 25.7 21.8 7.3 31 9.8 N 17 22 9 12 1021.6 - 0.0
28/11:00am 25.0 21.6 7.6 33 9.3 N 15 22 8 12 1021.9 - 0.0
28/10:30am 23.3 19.3 8.2 38 8.0 N 19 22 10 12 1022.2 - 0.0
28/10:00am 21.3 17.4 8.6 44 6.7 N 19 24 10 13 1022.0 - 0.0
28/09:30am 19.7 16.3 9.0 50 5.7 N 17 22 9 12 1022.2 - 0.0
28/09:00am 18.8 17.0 9.3 54 5.0 N 9 13 5 7 1022.2 1021.9 0.0
28/08:30am 16.9 14.9 8.8 59 4.2 NE 9 11 5 6 1021.9 - 0.0
28/08:00am 16.4 14.0 8.6 60 4.0 NNE 11 13 6 7 1021.8 - 0.0
28/07:30am 15.6 13.6 8.6 63 3.6 N 9 11 5 6 1021.8 - 0.0
28/07:00am 14.6 12.5 8.3 66 3.2 NE 9 13 5 7 1020.9 - 0.0
28/06:30am 14.3 12.2 8.3 67 3.0 NE 9 11 5 6 1020.7 - 0.0
28/06:00am 14.3 12.1 8.0 66 3.1 E 9 11 5 6 1020.4 1020.1 0.0
28/05:30am 14.7 12.6 8.4 66 3.2 E 9 11 5 6 1020.3 - 0.0
28/05:00am 14.7 12.6 8.4 66 3.2 ENE 9 11 5 6 1020.2 - 0.0
28/04:30am 14.9 12.8 8.4 65 3.3 NE 9 11 5 6 1019.8 - 0.0
28/04:00am 15.3 13.6 8.3 63 3.6 NE 7 9 4 5 1020.0 - 0.0
28/03:30am 15.7 14.0 8.4 62 3.7 ENE 7 9 4 5 1019.9 - 0.0
28/03:00am 16.3 13.9 8.8 61 3.9 ENE 11 13 6 7 1019.7 1019.4 0.0
28/02:30am 16.3 14.6 8.5 60 4.0 E 7 9 4 5 1020.1 - 0.0
28/02:00am 16.9 15.2 8.3 57 4.4 E 7 11 4 6 1020.1 - 0.0
28/01:30am 17.8 15.7 8.4 54 4.9 E 9 11 5 6 1020.4 - 0.0
28/01:00am 18.6 16.6 8.6 52 5.2 E 9 13 5 7 1020.8 - 0.0
28/12:30am 18.6 16.6 8.6 52 5.2 E 9 11 5 6 1020.8 - 0.0
28/12:00am 18.9 16.4 8.3 50 5.5 E 11 13 6 7 1020.5 1020.2 0.0
 
Date/Time
EST
Temp
°C
App
Temp
°C
Dew
Point
Rel
Hum
%
Delta-T
°C
Wind Press
QNH
hPa
Press
MSL
hPa
Rain
since 9 am
mm
Dir
 
Spd
km/h
Gust
km/h
Spd
kts
Gust
kts
27/11:30pm 19.1 17.0 8.1 49 5.7 E 9 11 5 6 1020.8 - 0.0
27/11:00pm 18.8 16.5 7.6 48 5.7 E 9 11 5 6 1020.8 - 0.0
27/10:30pm 19.1 16.8 7.5 47 5.9 E 9 11 5 6 1020.9 - 0.0
27/10:00pm 19.7 17.4 7.4 45 6.3 E 9 11 5 6 1020.8 - 0.0
27/09:30pm 20.3 17.6 7.3 43 6.7 E 11 13 6 7 1020.7 - 0.0
27/09:00pm 20.5 17.9 7.8 44 6.6 E 11 13 6 7 1021.0 1020.6 0.0
27/08:30pm 20.3 18.1 7.7 44 6.5 E 9 11 5 6 1021.2 - 0.0
27/08:00pm 20.4 18.5 7.7 44 6.6 ESE 7 9 4 5 1021.2 - 0.0
27/07:30pm 21.1 19.1 7.3 41 7.1 ESE 7 7 4 4 1020.8 - 0.0
27/07:00pm 22.6 20.4 8.0 39 7.7 SE 9 11 5 6 1020.3 - 0.0
27/06:30pm 22.5 20.6 7.5 38 7.8 ESE 7 9 4 5 1019.9 - 0.0
27/06:00pm 23.8 21.9 6.6 33 8.9 SSE 6 9 3 5 1019.9 1019.7 0.0
27/05:30pm 25.2 23.2 6.9 31 9.6 E 7 9 4 5 1019.5 - 0.0
27/05:00pm 26.0 23.9 6.6 29 10.2 SE 7 9 4 5 1019.7 - 0.0
27/04:30pm 26.4 24.2 6.4 28 10.5 S 7 13 4 7 1019.5 - 0.0
27/04:00pm 26.4 24.2 6.4 28 10.5 SE 7 13 4 7 1019.5 - 0.0
27/03:30pm 27.0 24.8 6.4 27 10.8 ENE 7 13 4 7 1019.5 - 0.0
27/03:00pm 27.5 25.6 6.8 27 11.0 S 6 11 3 6 1019.8 1019.4 0.0
27/02:30pm 26.3 24.1 6.3 28 10.5 S 7 11 4 6 1020.1 - 0.0
27/02:00pm 26.0 23.6 7.1 30 10.0 WNW 9 13 5 7 1020.3 - 0.0
27/01:30pm 26.2 24.2 7.3 30 10.1 N 7 13 4 7 1020.6 - 0.0
27/01:00pm 25.8 23.5 7.4 31 9.8 NE 9 15 5 8 1021.0 - 0.0
27/12:30pm 25.3 22.4 8.3 34 9.2 NNW 13 19 7 10 1021.7 - 0.0
27/12:00pm 25.5 22.5 9.3 36 8.9 N 15 22 8 12 1022.3 1022.0 0.0
27/11:30am 24.1 22.0 9.7 40 7.9 NNE 11 15 6 8 1022.9 - 0.0
27/11:00am 22.7 20.0 9.1 42 7.3 N 13 19 7 10 1023.2 - 0.0
27/10:30am 21.6 19.0 9.5 46 6.5 N 13 19 7 10 1023.7 - 0.0
27/10:00am 20.4 18.0 9.9 51 5.7 N 13 19 7 10 1023.7 - 0.0
27/09:30am 18.7 16.8 10.5 59 4.4 N 11 19 6 10 1023.7 - 0.0
27/09:00am 16.5 14.9 10.1 66 3.4 NNE 9 13 5 7 1023.5 1023.2 0.0
27/08:30am 15.0 13.7 9.8 71 2.7 NE 7 9 4 5 1023.5 - 0.0
27/08:00am 14.3 13.0 9.3 72 2.6 ENE 6 6 3 3 1023.1 - 0.0
27/07:30am 13.2 11.7 9.1 76 2.1 NE 7 9 4 5 1022.8 - 0.0
27/07:00am 12.1 10.2 7.6 74 2.2 NE 7 9 4 5 1022.3 - 0.0
27/06:30am 12.3 10.5 7.8 74 2.2 E 7 7 4 4 1022.2 - 0.0
27/06:00am 12.4 10.5 7.5 72 2.4 E 7 7 4 4 1022.0 1021.7 0.0
27/05:30am 12.9 11.3 8.0 72 2.4 E 6 7 3 4 1021.9 - 0.0
27/05:00am 13.2 11.7 8.3 72 2.5 E 6 7 3 4 1022.0 - 0.0
27/04:30am 13.4 11.6 8.0 70 2.7 ENE 7 9 4 5 1022.0 - 0.0
27/04:00am 13.2 11.2 7.0 66 3.0 ENE 7 9 4 5 1022.1 - 0.0
27/03:30am 13.8 12.0 7.8 67 3.0 ENE 7 9 4 5 1022.3 - 0.0
27/03:00am 14.3 12.6 7.6 64 3.3 E 6 6 3 3 1022.3 1022.0 0.0
27/02:30am 15.0 13.2 8.0 63 3.5 E 7 7 4 4 1022.4 - 0.0
27/02:00am 15.3 13.1 7.8 61 3.8 E 9 9 5 5 1022.6 - 0.0
27/01:30am 15.4 13.6 7.9 61 3.8 ESE 7 9 4 5 1022.8 - 0.0
27/01:00am 15.1 13.2 6.7 57 4.1 ESE 6 7 3 4 1023.2 - 0.0
27/12:30am 16.1 14.3 7.3 56 4.4 SE 6 7 3 4 1023.3 - 0.0
27/12:00am 16.5 14.5 7.2 54 4.6 E 7 9 4 5 1023.2 1023.0 0.0
 
Date/Time
EST
Temp
°C
App
Temp
°C
Dew
Point
Rel
Hum
%
Delta-T
°C
Wind Press
QNH
hPa
Press
MSL
hPa
Rain
since 9 am
mm
Dir
 
Spd
km/h
Gust
km/h
Spd
kts
Gust
kts
26/11:30pm 16.9 14.9 7.3 53 4.8 ENE 7 9 4 5 1023.3 - 0.0
26/11:00pm 17.4 15.0 7.2 51 5.1 ENE 9 11 5 6 1023.3 - 0.0
26/10:30pm 17.8 15.8 7.0 49 5.4 E 7 9 4 5 1023.4 - 0.0
26/10:00pm 18.4 16.0 6.9 47 5.8 ESE 9 11 5 6 1023.3 - 0.0
26/09:30pm 18.6 16.2 7.1 47 5.8 ESE 9 13 5 7 1023.5 - 0.0
26/09:00pm 19.0 17.0 7.1 46 6.0 ESE 7 9 4 5 1023.9 1023.5 0.0
26/08:30pm 19.7 17.7 7.1 44 6.4 ESE 7 11 4 6 1024.0 - 0.0
26/08:00pm 20.1 17.7 6.8 42 6.8 ESE 9 11 5 6 1023.7 - 0.0
26/07:30pm 20.9 18.4 6.4 39 7.4 SE 9 13 5 7 1023.5 - 0.0
26/07:00pm 21.5 18.6 6.6 38 7.6 SSE 11 13 6 7 1022.9 - 0.0
26/06:30pm 22.1 19.1 5.9 35 8.2 SSE 11 13 6 7 1022.9 - 0.0
26/06:00pm 23.0 19.9 5.4 32 8.8 SSE 11 11 6 6 1022.7 1022.3 0.0
26/05:30pm 24.2 21.1 5.5 30 9.5 SSE 11 15 6 8 1022.3 - 0.0
26/05:00pm 24.9 21.5 5.7 29 9.9 SE 13 17 7 9 1022.2 - 0.0
26/04:30pm 25.5 22.7 7.1 31 9.7 S 11 17 6 9 1022.0 - 0.0
26/04:00pm 25.5 23.1 7.1 31 9.7 W 9 13 5 7 1022.2 - 0.0
26/03:30pm 25.6 23.7 6.7 30 9.9 W 6 15 3 8 1022.3 - 0.0
26/03:00pm 25.5 22.7 7.1 31 9.7 NW 11 17 6 9 1022.6 1022.3 0.0
26/02:30pm 25.5 23.6 7.6 32 9.5 NE 7 15 4 8 1022.4 - 0.0
26/02:00pm 25.7 23.3 6.8 30 9.9 WSW 9 13 5 7 1022.8 - 0.0
26/01:30pm 25.1 22.5 7.7 33 9.3 WNW 11 17 6 9 1023.2 - 0.0
26/01:00pm 24.9 23.0 9.2 37 8.6 WNW 9 17 5 9 1023.9 - 0.0
26/12:30pm 24.6 23.2 9.7 39 8.2 W 7 15 4 8 1024.6 - 0.0
26/12:00pm 23.0 20.4 9.4 42 7.3 NW 13 17 7 9 1025.3 1025.0 0.0
26/11:30am 21.8 19.2 9.3 45 6.7 NNW 13 17 7 9 1025.7 - 0.0
26/11:00am 21.5 19.2 9.1 45 6.6 N 11 13 6 7 1026.0 - 0.0
26/10:30am 20.4 18.0 8.7 47 6.2 N 11 15 6 8 1026.3 - 0.0
26/10:00am 19.4 17.4 8.7 50 5.6 NNE 9 15 5 8 1026.8 - 0.0
26/09:30am 18.1 15.3 8.7 54 4.9 NE 13 15 7 8 1026.9 - 0.0
26/09:00am 17.3 14.8 8.4 56 4.6 NE 11 15 6 8 1026.7 1026.4 0.0
26/08:30am 16.8 14.8 8.5 58 4.3 ENE 9 13 5 7 1026.4 - 0.0
26/08:00am 16.5 14.1 8.5 59 4.1 E 11 13 6 7 1026.3 - 0.0
26/07:30am 16.0 13.8 8.0 59 4.1 E 9 11 5 6 1025.9 - 0.0
26/07:00am 16.0 13.8 8.0 59 4.1 ENE 9 11 5 6 1025.6 - 0.0
26/06:30am 15.9 14.1 7.9 59 4.0 E 7 11 4 6 1026.0 - 0.0
26/06:00am 16.3 14.7 7.8 57 4.3 E 6 7 3 4 1025.7 1025.4 0.0
26/05:30am 16.4 14.2 7.9 57 4.3 E 9 11 5 6 1025.6 - 0.0
26/05:00am 16.5 13.9 7.7 56 4.4 E 11 15 6 8 1025.2 - 0.0
26/04:30am 16.7 14.5 7.9 56 4.5 ENE 9 13 5 7 1025.8 - 0.0
26/04:00am 16.8 13.8 7.7 55 4.6 E 13 17 7 9 1025.2 - 0.0
26/03:30am 17.1 14.5 7.7 54 4.8 E 11 17 6 9 1025.3 - 0.0
26/03:00am 17.4 14.4 7.7 53 4.9 ENE 13 15 7 8 1025.5 1025.1 0.0
26/02:30am 17.7 14.2 7.4 51 5.2 ENE 15 20 8 11 1025.5 - 0.0
26/02:00am 18.0 14.9 7.4 50 5.4 ENE 13 17 7 9 1025.9 - 0.0
26/01:30am 18.1 15.1 7.8 51 5.3 ENE 13 17 7 9 1026.2 - 0.0
26/01:00am 17.8 14.8 7.5 51 5.2 E 13 17 7 9 1026.0 - 0.0
26/12:30am 17.8 14.8 7.8 52 5.1 E 13 15 7 8 1026.3 - 0.0
26/12:00am 17.6 15.4 7.9 53 4.9 E 9 13 5 7 1026.7 1026.4 0.0
 
Date/Time
EST
Temp
°C
App
Temp
°C
Dew
Point
Rel
Hum
%
Delta-T
°C
Wind Press
QNH
hPa
Press
MSL
hPa
Rain
since 9 am
mm
Dir
 
Spd
km/h
Gust
km/h
Spd
kts
Gust
kts
25/11:30pm 17.9 15.7 7.9 52 5.1 E 9 11 5 6 1027.0 - 0.0
25/11:00pm 18.3 15.8 8.0 51 5.3 E 11 13 6 7 1026.7 - 0.0
25/10:30pm 18.5 15.9 7.9 50 5.4 E 11 13 6 7 1026.7 - 0.0
25/10:00pm 19.0 16.9 8.1 49 5.6 E 9 13 5 7 1026.8 - 0.0
25/09:30pm 19.6 17.4 8.0 47 6.0 E 9 11 5 6 1026.9 - 0.0
25/09:00pm 20.4 18.3 8.1 45 6.4 E 9 11 5 6 1026.7 1026.4 0.0
25/08:30pm 20.9 18.8 8.2 44 6.7 ENE 9 13 5 7 1026.5 - 0.0
25/08:00pm 21.3 18.8 8.2 43 6.9 E 11 13 6 7 1026.2 - 0.0
25/07:30pm 21.9 19.0 8.1 41 7.3 E 13 17 7 9 1025.9 - 0.0
25/07:00pm 21.8 18.8 7.6 40 7.4 E 13 17 7 9 1025.3 - 0.0
25/06:30pm 21.3 20.1 8.2 43 6.9 ENE 4 7 2 4 1025.6 - 0.0
25/06:00pm 22.4 21.4 7.4 38 7.8 NE 2 4 1 2 1025.5 1025.0 0.0
25/05:30pm 23.3 21.6 7.4 36 8.3 NNE 6 7 3 4 1024.7 - 0.0
25/05:00pm 24.1 22.0 6.8 33 9.0 NNE 7 9 4 5 1025.0 - 0.0
25/04:30pm 24.2 22.3 7.4 34 8.9 NE 7 11 4 6 1024.9 - 0.0
25/04:00pm 24.5 22.5 7.2 33 9.1 N 7 11 4 6 1024.8 - 0.0
25/03:30pm 24.7 22.3 6.9 32 9.3 N 9 11 5 6 1024.9 - 0.0
25/03:00pm 24.9 22.5 7.1 32 9.3 NNW 9 13 5 7 1024.8 1024.4 0.0
25/02:30pm 25.0 22.5 6.7 31 9.6 N 9 15 5 8 1024.8 - 0.0

Other Formats:

Comma delimited format used in spreadsheet applications
http://www.bom.gov.au/fwo/IDQ60801/IDQ60801.95492.axf

JavaScript Object Notation format (JSON) in row-major order
http://www.bom.gov.au/fwo/IDQ60801/IDQ60801.95492.json